Time;durP1;ratioP1;P1;durP2;ratioP2;P2;SDS_P1;SDS_P2;PMS_P1;PMS_P2;Temp;Humidity;BMP_temperature;BMP_pressure;BME280_temperature;BME280_humidity;BME280_pressure;Samples;Min_cycle;Max_cycle;Signal;HPM_P1;HPM_P2
2022/08/02 00:00:24;;;;;;;3.60;2.00;;;;;;;10.33;100.00;101796.41;1027018;28;20855;-81
2022/08/02 00:00:56;;;;;;;5.15;2.03;;;;;;;10.44;100.00;101797.75;1027110;28;20306;-81
2022/08/02 00:01:27;;;;;;;5.47;2.30;;;;;;;10.46;100.00;101798.38;1027132;28;20316;-81
2022/08/02 00:01:59;;;;;;;2.50;1.95;;;;;;;10.36;100.00;101792.53;1028146;28;20317;-81
2022/08/02 00:02:31;;;;;;;2.05;1.65;;;;;;;10.28;100.00;101798.00;1031283;28;20336;-82
2022/08/02 00:03:02;;;;;;;1.95;1.67;;;;;;;10.29;100.00;101794.31;1030579;28;20316;-81
2022/08/02 00:03:34;;;;;;;4.25;1.95;;;;;;;10.32;100.00;101794.75;1026750;28;20313;-81
2022/08/02 00:04:06;;;;;;;2.67;1.90;;;;;;;10.32;100.00;101788.59;1023682;28;20364;-80
2022/08/02 00:04:37;;;;;;;4.82;2.22;;;;;;;10.32;100.00;101794.75;1026215;28;20330;-81
2022/08/02 00:05:10;;;;;;;2.15;1.92;;;;;;;10.30;100.00;101787.97;1023867;28;20357;-82
2022/08/02 00:05:42;;;;;;;3.85;2.20;;;;;;;10.30;100.00;101791.47;1025594;28;20302;-81
2022/08/02 00:06:24;;;;;;;2.65;1.92;;;;;;;10.42;100.00;101789.94;1028888;28;20393;-81
2022/08/02 00:06:56;;;;;;;2.35;2.15;;;;;;;10.43;100.00;101790.78;1030881;28;20824;-81
2022/08/02 00:07:28;;;;;;;2.85;1.63;;;;;;;10.31;100.00;101789.63;1032088;28;20373;-81
2022/08/02 00:07:59;;;;;;;1.90;1.80;;;;;;;10.30;100.00;101795.97;1029226;28;20683;-81
2022/08/02 00:08:32;;;;;;;4.53;2.40;;;;;;;10.50;100.00;101791.66;1030880;28;20312;-81
2022/08/02 00:09:04;;;;;;;2.28;1.65;;;;;;;10.58;100.00;101802.16;1031803;28;20301;-81
2022/08/02 00:09:37;;;;;;;2.45;1.98;;;;;;;10.67;100.00;101794.84;1027973;28;20302;-81
2022/08/02 00:10:10;;;;;;;3.53;2.25;;;;;;;10.70;100.00;101795.31;1023775;28;20307;-81
2022/08/02 00:10:42;;;;;;;1.70;1.60;;;;;;;10.73;100.00;101802.91;1025969;28;20305;-81
2022/08/02 00:11:13;;;;;;;2.47;1.83;;;;;;;10.69;100.00;101800.81;1030788;28;20534;-81
2022/08/02 00:11:45;;;;;;;2.88;1.95;;;;;;;10.71;100.00;101807.59;1032816;28;20705;-81
2022/08/02 00:12:16;;;;;;;1.73;1.63;;;;;;;10.69;100.00;101801.66;1031778;28;20305;-81
2022/08/02 00:12:48;;;;;;;4.50;2.35;;;;;;;10.55;100.00;101804.38;1031790;28;20310;-81
2022/08/02 00:13:20;;;;;;;1.83;1.73;;;;;;;10.45;100.00;101802.06;1032009;28;20720;-81
2022/08/02 00:13:51;;;;;;;3.03;2.08;;;;;;;10.39;100.00;101795.63;1035479;28;20359;-81
2022/08/02 00:14:23;;;;;;;3.70;1.83;;;;;;;10.43;100.00;101801.44;1031888;28;20297;-81
2022/08/02 00:14:54;;;;;;;4.45;2.78;;;;;;;10.57;100.00;101797.84;1030474;28;20748;-81
2022/08/02 00:15:26;;;;;;;3.63;2.22;;;;;;;10.66;100.00;101796.69;1027862;28;20328;-81
2022/08/02 00:15:58;;;;;;;2.88;2.20;;;;;;;10.58;100.00;101802.16;1028433;28;20300;-81
2022/08/02 00:16:29;;;;;;;2.45;2.25;;;;;;;10.56;100.00;101801.53;1031667;28;20305;-81
2022/08/02 00:17:08;;;;;;;3.15;2.17;;;;;;;10.43;100.00;101802.25;1031863;28;20302;-81
2022/08/02 00:17:40;;;;;;;2.45;2.20;;;;;;;10.44;100.00;101803.06;1031552;28;20320;-81
2022/08/02 00:18:12;;;;;;;3.22;2.03;;;;;;;10.33;100.00;101791.06;1031725;28;20786;-81
2022/08/02 00:18:44;;;;;;;2.38;2.15;;;;;;;10.45;100.00;101796.72;1034546;28;20297;-81
2022/08/02 00:19:15;;;;;;;3.38;3.05;;;;;;;10.52;100.00;101794.94;1035728;28;20818;-81
2022/08/02 00:19:47;;;;;;;2.90;2.45;;;;;;;10.59;100.00;101790.47;1031753;28;20356;-81
2022/08/02 00:20:18;;;;;;;5.28;1.95;;;;;;;10.66;100.00;101795.84;1031892;28;20297;-81
2022/08/02 00:20:50;;;;;;;3.63;2.13;;;;;;;10.69;100.00;101793.66;1032103;28;20297;-81
2022/08/02 00:21:21;;;;;;;2.15;2.05;;;;;;;10.73;100.00;101791.41;1031320;28;20305;-81
2022/08/02 00:21:53;;;;;;;4.55;2.40;;;;;;;10.72;100.00;101790.59;1031544;28;20435;-81
2022/08/02 00:22:24;;;;;;;3.35;2.38;;;;;;;10.80;100.00;101793.09;1028142;28;20302;-81
2022/08/02 00:22:57;;;;;;;2.60;2.40;;;;;;;10.83;100.00;101790.06;1029665;28;20661;-81
2022/08/02 00:23:29;;;;;;;5.75;2.47;;;;;;;10.81;100.00;101788.59;1031839;28;20297;-81
2022/08/02 00:24:00;;;;;;;6.82;2.40;;;;;;;10.72;100.00;101787.09;1033629;28;20347;-81
2022/08/02 00:24:52;;;;;;;3.88;2.35;;;;;;;10.62;100.00;101789.25;1032021;28;20439;-79
2022/08/02 00:25:23;;;;;;;4.28;1.95;;;;;;;10.59;100.00;101787.00;1038618;28;20671;-81
2022/08/02 00:25:55;;;;;;;3.40;2.08;;;;;;;10.59;100.00;101779.00;1032789;28;20317;-81
2022/08/02 00:26:27;;;;;;;3.92;2.50;;;;;;;10.52;100.00;101790.44;1027828;28;20677;-81
2022/08/02 00:26:59;;;;;;;2.50;2.25;;;;;;;10.57;100.00;101781.84;1027339;28;21016;-81
2022/08/02 00:27:30;;;;;;;6.15;2.30;;;;;;;10.53;100.00;101791.25;1024337;28;20306;-82
2022/08/02 00:28:02;;;;;;;6.22;2.50;;;;;;;10.50;100.00;101788.97;1028142;28;20305;-81
2022/08/02 00:28:33;;;;;;;4.20;2.30;;;;;;;10.44;100.00;101787.09;1029788;28;20748;-81
2022/08/02 00:29:05;;;;;;;2.92;2.47;;;;;;;10.43;100.00;101786.28;1024491;28;20848;-81
2022/08/02 00:29:37;;;;;;;4.22;2.50;;;;;;;10.42;100.00;101789.13;1025615;28;20302;-81
2022/08/02 00:30:24;;;;;;;2.50;1.92;;;;;;;10.37;100.00;101792.34;1028292;28;20774;-81
2022/08/02 00:30:57;;;;;;;4.68;3.17;;;;;;;10.38;100.00;101793.97;1031856;28;20821;-81
2022/08/02 00:31:28;;;;;;;5.07;2.40;;;;;;;10.40;100.00;101788.47;1031632;28;20308;-81
2022/08/02 00:32:00;;;;;;;5.68;2.15;;;;;;;10.48;100.00;101793.69;1031826;28;20828;-81
2022/08/02 00:32:32;;;;;;;4.28;2.35;;;;;;;10.57;100.00;101792.50;1031470;28;20301;-81
2022/08/02 00:33:07;;;;;;;5.90;2.40;;;;;;;10.63;100.00;101799.72;1035289;28;20299;-81
2022/08/02 00:33:38;;;;;;;2.33;1.70;;;;;;;10.69;100.00;101800.81;1031521;28;20693;-81
2022/08/02 00:34:30;;;;;;;3.97;2.30;;;;;;;10.72;100.00;101798.59;1031863;28;20305;-81
2022/08/02 00:35:08;;;;;;;3.78;2.85;;;;;;;10.75;100.00;101800.88;1032113;28;20451;-80
2022/08/02 00:35:39;;;;;;;6.63;1.98;;;;;;;10.75;100.00;101800.88;1031452;28;20314;-81
2022/08/02 00:36:11;;;;;;;2.45;2.25;;;;;;;10.80;100.00;101798.44;1027909;28;20306;-81
2022/08/02 00:36:42;;;;;;;4.78;2.60;;;;;;;10.83;100.00;101810.56;1025058;28;20318;-80
2022/08/02 00:37:14;;;;;;;3.92;2.60;;;;;;;10.82;100.00;101807.06;1023797;28;20315;-81
2022/08/02 00:37:46;;;;;;;5.15;2.97;;;;;;;10.84;100.00;101798.88;1023265;29;20341;-80
2022/08/02 00:38:17;;;;;;;6.13;2.58;;;;;;;10.86;100.00;101796.84;1024318;28;20714;-81
2022/08/02 00:38:49;;;;;;;4.47;2.65;;;;;;;10.82;100.00;101801.72;1028600;28;20675;-81
2022/08/02 00:39:21;;;;;;;2.65;2.40;;;;;;;10.80;100.00;101802.94;1036160;28;20330;-81
2022/08/02 00:40:10;;;;;;;4.57;2.83;;;;;;;10.84;100.00;101799.69;1039907;28;20299;-81
2022/08/02 00:40:49;;;;;;;4.63;3.00;;;;;;;10.88;100.00;101799.31;1035471;28;20350;-81
2022/08/02 00:41:23;;;;;;;3.30;2.38;;;;;;;10.92;100.00;101800.56;1036036;28;20361;-81
2022/08/02 00:41:55;;;;;;;3.13;2.85;;;;;;;10.71;100.00;101798.78;1035294;28;20315;-81
2022/08/02 00:42:26;;;;;;;2.78;2.15;;;;;;;10.49;100.00;101803.31;1033742;28;20697;-81
2022/08/02 00:43:03;;;;;;;3.10;2.35;;;;;;;10.47;100.00;101797.34;1033736;28;20316;-81
2022/08/02 00:43:35;;;;;;;5.55;2.17;;;;;;;10.51;100.00;101793.28;1031658;28;20301;-81
2022/08/02 00:44:07;;;;;;;2.55;2.28;;;;;;;10.43;100.00;101796.09;1028559;28;20317;-81
2022/08/02 00:44:38;;;;;;;4.32;2.60;;;;;;;10.45;100.00;101799.41;1027477;28;20309;-81
2022/08/02 00:45:10;;;;;;;3.50;2.53;;;;;;;10.43;100.00;101790.78;1028452;28;20321;-81
2022/08/02 00:45:41;;;;;;;3.65;2.60;;;;;;;10.38;100.00;101788.66;1027939;28;20794;-81
2022/08/02 00:46:33;;;;;;;3.60;2.60;;;;;;;10.39;100.00;101787.63;1030753;28;20293;-81
2022/08/02 00:47:05;;;;;;;3.50;2.70;;;;;;;10.32;100.00;101788.59;1027872;28;20304;-81
2022/08/02 00:47:36;;;;;;;4.55;3.08;;;;;;;10.27;100.00;101780.38;1026438;28;20297;-81
2022/08/02 00:48:10;;;;;;;5.60;3.05;;;;;;;10.20;100.00;101785.59;1026947;28;21508;-81
2022/08/02 00:48:41;;;;;;;7.57;3.22;;;;;;;10.25;100.00;101780.56;1028485;28;20302;-81
2022/08/02 00:49:14;;;;;;;3.42;2.85;;;;;;;10.31;100.00;101778.97;1028486;28;20690;-81
2022/08/02 00:49:47;;;;;;;4.03;3.10;;;;;;;10.27;100.00;101785.69;1028439;28;20441;-80
2022/08/02 00:50:18;;;;;;;8.25;3.50;;;;;;;10.29;100.00;101779.16;1027642;28;20341;-81
2022/08/02 00:50:50;;;;;;;3.38;3.08;;;;;;;10.32;100.00;101780.63;1028640;28;20836;-81
2022/08/02 00:51:21;;;;;;;4.32;3.10;;;;;;;10.37;100.00;101786.19;1023053;29;20307;-81
2022/08/02 00:51:53;;;;;;;4.95;2.53;;;;;;;10.37;100.00;101776.34;1027631;28;20357;-81
2022/08/02 00:52:25;;;;;;;3.85;2.70;;;;;;;10.44;100.00;101777.25;1027992;28;20298;-81
2022/08/02 00:52:57;;;;;;;2.85;2.55;;;;;;;10.54;100.00;101782.25;1027328;28;20302;-80
2022/08/02 00:53:28;;;;;;;4.78;2.90;;;;;;;10.51;100.00;101774.66;1032502;28;20304;-81
2022/08/02 00:54:00;;;;;;;2.40;2.20;;;;;;;10.45;100.00;101767.44;1031586;28;20631;-80
2022/08/02 00:54:32;;;;;;;4.72;2.83;;;;;;;10.41;100.00;101771.50;1032375;28;20302;-80
2022/08/02 00:55:04;;;;;;;2.75;2.30;;;;;;;10.37;100.00;101775.53;1036013;28;20319;-80
2022/08/02 00:55:36;;;;;;;3.58;2.78;;;;;;;10.27;100.00;101775.88;1036130;28;20297;-81
2022/08/02 00:56:08;;;;;;;4.93;2.63;;;;;;;10.27;100.00;101775.03;1035605;28;20293;-80
2022/08/02 00:56:39;;;;;;;4.25;2.50;;;;;;;10.32;100.00;101772.63;1031156;28;20368;-81
2022/08/02 00:57:20;;;;;;;6.10;2.67;;;;;;;10.32;100.00;101777.94;1027569;28;20829;-81
2022/08/02 00:57:52;;;;;;;2.45;2.25;;;;;;;10.37;100.00;101768.38;1029425;28;20130;-80
2022/08/02 00:58:24;;;;;;;3.53;3.17;;;;;;;10.39;100.00;101773.50;1033325;28;20309;-81
2022/08/02 00:58:56;;;;;;;3.20;2.47;;;;;;;10.42;100.00;101773.97;1037585;28;20303;-81
2022/08/02 00:59:27;;;;;;;2.72;2.10;;;;;;;10.40;100.00;101775.16;1035622;28;20308;-80
2022/08/02 00:59:59;;;;;;;5.32;2.53;;;;;;;10.38;100.00;101769.19;1027448;28;20313;-81
2022/08/02 01:00:30;;;;;;;4.40;2.67;;;;;;;10.33;100.00;101769.78;1027711;28;20302;-81
2022/08/02 01:01:02;;;;;;;3.70;2.55;;;;;;;10.33;100.00;101774.28;1024076;28;20303;-81
2022/08/02 01:01:40;;;;;;;7.82;3.30;;;;;;;10.46;100.00;101769.06;1027570;28;20839;-81
2022/08/02 01:02:28;;;;;;;2.95;2.47;;;;;;;10.48;100.00;101767.03;1031381;28;20828;-81
2022/08/02 01:02:59;;;;;;;4.03;2.53;;;;;;;10.44;100.00;101773.78;1035202;28;20292;-81
2022/08/02 01:03:31;;;;;;;4.40;2.65;;;;;;;10.44;100.00;101766.59;1038961;28;20311;-81
2022/08/02 01:04:11;;;;;;;5.13;2.85;;;;;;;10.45;100.00;101767.44;1035703;28;20306;-81
2022/08/02 01:04:44;;;;;;;3.70;3.35;;;;;;;10.46;100.00;101777.88;1027021;28;20774;-81
2022/08/02 01:05:15;;;;;;;3.28;2.55;;;;;;;10.37;100.00;101770.22;1023535;29;20065;-81
2022/08/02 01:05:47;;;;;;;4.97;2.90;;;;;;;10.31;100.00;101773.66;1023874;29;20303;-81
2022/08/02 01:06:41;;;;;;;2.72;2.53;;;;;;;10.31;100.00;101777.13;1028492;28;20305;-81
2022/08/02 01:07:13;;;;;;;2.30;2.10;;;;;;;10.41;100.00;101771.50;1030999;28;20309;-81
2022/08/02 01:07:45;;;;;;;5.00;2.28;;;;;;;10.50;100.00;101775.66;1027334;28;20765;-80
2022/08/02 01:08:17;;;;;;;9.35;3.72;;;;;;;10.54;100.00;101771.59;1021779;29;20309;-81
2022/08/02 01:08:49;;;;;;;3.30;2.47;;;;;;;10.62;100.00;101774.09;1020213;29;20299;-80
2022/08/02 01:09:21;;;;;;;3.45;3.15;;;;;;;10.63;100.00;101775.75;1020955;28;20322;-81
2022/08/02 01:09:52;;;;;;;3.10;2.83;;;;;;;10.66;100.00;101777.19;1024346;28;20306;-80
2022/08/02 01:10:24;;;;;;;3.80;2.80;;;;;;;10.52;100.00;101779.78;1026962;28;20294;-80
2022/08/02 01:10:56;;;;;;;2.80;2.60;;;;;;;10.55;100.00;101773.25;1031856;28;20685;-81
2022/08/02 01:11:28;;;;;;;9.30;3.15;;;;;;;10.57;100.00;101781.84;1035993;28;20305;-81
2022/08/02 01:12:00;;;;;;;4.90;2.60;;;;;;;10.48;100.00;101772.38;1033298;28;20297;-81
2022/08/02 01:12:33;;;;;;;5.57;2.95;;;;;;;10.38;100.00;101783.34;1036297;28;20311;-81
2022/08/02 01:13:05;;;;;;;3.22;2.92;;;;;;;10.48;100.00;101777.69;1035528;28;20300;-80
2022/08/02 01:13:36;;;;;;;3.95;2.53;;;;;;;10.60;100.00;101777.97;1031832;28;20297;-81
2022/08/02 01:14:12;;;;;;;2.80;2.60;;;;;;;10.62;100.00;101779.44;1031561;28;20301;-81
2022/08/02 01:14:46;;;;;;;3.72;2.63;;;;;;;10.64;100.00;101777.41;1027976;28;20805;-81
2022/08/02 01:15:18;;;;;;;3.20;2.90;;;;;;;10.62;100.00;101784.75;1029056;28;20314;-81
2022/08/02 01:15:55;;;;;;;4.75;3.17;;;;;;;10.59;100.00;101774.50;1031344;28;20293;-81
2022/08/02 01:16:27;;;;;;;3.10;2.25;;;;;;;10.56;100.00;101774.06;1029384;28;20298;-81
2022/08/02 01:17:07;;;;;;;6.13;2.80;;;;;;;10.44;100.00;101787.91;1024452;28;20313;-80
2022/08/02 01:17:42;;;;;;;4.10;2.60;;;;;;;10.39;100.00;101778.81;1023589;29;20711;-81
2022/08/02 01:18:27;;;;;;;2.75;2.55;;;;;;;10.30;100.00;101786.13;1025659;28;20301;-81
2022/08/02 01:19:12;;;;;;;5.38;2.50;;;;;;;10.26;100.00;101779.56;1027587;28;20310;-81
2022/08/02 01:19:58;;;;;;;5.80;3.92;;;;;;;10.14;100.00;101776.56;1030695;28;20769;-81
2022/08/02 01:20:49;;;;;;;4.45;3.58;;;;;;;10.18;100.00;101783.16;1031803;28;20336;-81
2022/08/02 01:21:42;;;;;;;5.10;2.47;;;;;;;10.14;100.00;101781.88;1031143;28;20812;-81
2022/08/02 01:22:37;;;;;;;4.43;3.33;;;;;;;10.12;100.00;101778.56;1032234;28;20051;-81
2022/08/02 01:23:51;;;;;;;3.33;2.58;;;;;;;10.24;100.00;101773.59;1035701;28;21338;-81
2022/08/02 01:24:51;;;;;;;3.92;2.33;;;;;;;10.23;100.00;101779.09;1035776;28;20301;-81
2022/08/02 01:25:49;;;;;;;2.85;2.08;;;;;;;10.31;100.00;101784.28;1035182;28;20388;-81
2022/08/02 01:26:27;;;;;;;4.35;2.40;;;;;;;10.18;100.00;101779.66;1035479;28;20292;-81
2022/08/02 01:27:28;;;;;;;2.78;2.13;;;;;;;10.12;100.00;101785.72;1034830;28;20312;-81
2022/08/02 01:28:13;;;;;;;3.15;2.20;;;;;;;10.04;100.00;101781.34;1035300;28;20681;-81
2022/08/02 01:29:13;;;;;;;2.30;2.17;;;;;;;9.98;100.00;101779.44;1031406;28;20054;-81
2022/08/02 01:29:49;;;;;;;4.85;2.42;;;;;;;9.93;100.00;101773.88;1027485;28;20678;-81
2022/08/02 01:30:21;;;;;;;2.13;2.03;;;;;;;9.96;100.00;101784.13;1028197;28;20294;-81
2022/08/02 01:31:15;;;;;;;3.05;2.45;;;;;;;9.84;100.00;101788.28;1027607;28;20313;-81
2022/08/02 01:31:56;;;;;;;2.20;2.00;;;;;;;9.80;100.00;101779.03;1025879;28;20796;-81
2022/08/02 01:32:36;;;;;;;3.92;2.10;;;;;;;9.73;100.00;101783.47;1024208;28;20434;-81
2022/08/02 01:33:11;;;;;;;2.45;2.03;;;;;;;9.64;100.00;101779.28;1019841;29;20310;-81
2022/08/02 01:33:48;;;;;;;2.25;2.05;;;;;;;9.59;100.00;101778.00;1021168;29;20052;-81
2022/08/02 01:34:35;;;;;;;2.60;2.28;;;;;;;9.62;100.00;101782.13;1020015;29;20676;-81
2022/08/02 01:35:10;;;;;;;2.10;1.90;;;;;;;9.60;100.00;101776.16;1030330;28;20677;-81
2022/08/02 01:35:44;;;;;;;3.67;2.13;;;;;;;9.53;100.00;101773.41;1031233;28;20308;-81
2022/08/02 01:36:22;;;;;;;1.92;1.80;;;;;;;9.57;100.00;101772.03;1025576;28;20298;-81
2022/08/02 01:37:02;;;;;;;1.63;1.52;;;;;;;9.58;100.00;101771.00;1023170;28;20310;-81
2022/08/02 01:37:40;;;;;;;3.00;2.42;;;;;;;9.54;100.00;101761.75;1022079;28;20306;-81
2022/08/02 01:38:23;;;;;;;2.83;2.00;;;;;;;9.53;100.00;101773.41;1021974;28;20542;-80
2022/08/02 01:38:55;;;;;;;3.70;2.22;;;;;;;9.47;100.00;101763.53;1027489;28;20310;-81
2022/08/02 01:39:30;;;;;;;3.05;2.20;;;;;;;9.46;100.00;101777.84;1026418;28;20304;-81
2022/08/02 01:40:07;;;;;;;4.53;2.00;;;;;;;9.45;100.00;101765.56;1028827;28;20294;-81
2022/08/02 01:40:41;;;;;;;2.88;1.90;;;;;;;9.45;100.00;101767.38;1027220;28;20310;-80
2022/08/02 01:41:17;;;;;;;2.85;2.30;;;;;;;9.44;100.00;101765.72;1023550;28;20305;-81
2022/08/02 01:41:49;;;;;;;4.47;1.80;;;;;;;9.35;100.00;101764.19;1022702;29;20302;-81
2022/08/02 01:42:30;;;;;;;3.03;2.60;;;;;;;9.36;100.00;101764.00;1024233;28;20310;-81
2022/08/02 01:43:02;;;;;;;8.02;1.77;;;;;;;9.38;100.00;101763.81;1029688;28;20313;-81
2022/08/02 01:43:37;;;;;;;2.00;1.80;;;;;;;9.38;100.00;101766.47;1029513;28;20307;-81
2022/08/02 01:44:09;;;;;;;1.95;1.85;;;;;;;9.37;100.00;101764.84;1025968;28;20307;-81
2022/08/02 01:44:42;;;;;;;1.92;1.83;;;;;;;9.35;100.00;101762.38;1023164;29;20310;-81
2022/08/02 01:45:15;;;;;;;2.17;2.03;;;;;;;9.34;100.00;101763.38;1020467;29;20307;-81
2022/08/02 01:45:46;;;;;;;6.10;3.40;;;;;;;9.35;100.00;101764.19;1020607;29;20303;-81
2022/08/02 01:46:19;;;;;;;7.57;2.35;;;;;;;9.33;100.00;101755.59;1024518;28;20290;-81
2022/08/02 01:46:52;;;;;;;3.60;2.13;;;;;;;9.33;100.00;101756.41;1028207;28;20302;-81
2022/08/02 01:47:27;;;;;;;2.25;1.90;;;;;;;9.30;100.00;101756.75;1031077;28;20297;-81
2022/08/02 01:47:59;;;;;;;2.65;2.42;;;;;;;9.34;100.00;101759.91;1027721;28;20296;-81
2022/08/02 01:48:33;;;;;;;2.55;2.05;;;;;;;9.37;100.00;101763.00;1027587;28;20397;-81
2022/08/02 01:49:06;;;;;;;3.47;2.25;;;;;;;9.38;100.00;101754.00;1024685;28;20313;-81
2022/08/02 01:49:41;;;;;;;2.35;2.15;;;;;;;9.38;100.00;101763.81;1025635;28;20298;-81
2022/08/02 01:50:15;;;;;;;4.88;2.10;;;;;;;9.35;100.00;101761.53;1031551;28;20364;-81
2022/08/02 01:50:47;;;;;;;5.78;1.88;;;;;;;9.28;100.00;101756.13;1027762;28;20801;-81
2022/08/02 01:52:20;;;;;;;4.07;2.00;;;;;;;9.27;100.00;101754.47;1028427;28;20317;-81
2022/08/02 01:52:21;;;;;;;7.35;3.35;;;;;;;9.27;100.00;101759.78;1030904;28;20308;-81
2022/08/02 01:52:56;;;;;;;4.25;2.03;;;;;;;9.26;100.00;101755.47;1027551;28;20341;-81
2022/08/02 01:53:29;;;;;;;2.05;1.88;;;;;;;9.20;100.00;101758.88;1027186;28;20313;-81
2022/08/02 01:54:01;;;;;;;5.65;2.25;;;;;;;9.19;100.00;101755.41;1027589;28;20310;-81
2022/08/02 01:54:34;;;;;;;2.45;1.80;;;;;;;9.21;100.00;101764.00;1029829;28;20302;-81
2022/08/02 01:55:12;;;;;;;2.95;2.28;;;;;;;9.18;100.00;101758.25;1026990;28;20298;-81
2022/08/02 01:55:50;;;;;;;3.15;2.35;;;;;;;9.23;100.00;101758.50;1025843;28;20286;-81
2022/08/02 01:56:29;;;;;;;2.60;2.25;;;;;;;9.23;100.00;101755.84;1019526;29;20359;-81
2022/08/02 01:57:03;;;;;;;2.33;2.22;;;;;;;9.28;100.00;101750.78;1014907;29;20319;-81
2022/08/02 01:57:45;;;;;;;3.92;2.10;;;;;;;9.34;100.00;101746.59;1013798;29;20305;-81
2022/08/02 01:58:19;;;;;;;5.13;2.20;;;;;;;9.36;100.00;101745.41;1021441;28;20363;-81
2022/08/02 01:58:52;;;;;;;4.30;2.45;;;;;;;9.37;100.00;101752.38;1024212;28;20831;-81
2022/08/02 01:59:24;;;;;;;4.45;2.53;;;;;;;9.35;100.00;101741.09;1023781;28;20307;-81
2022/08/02 01:59:59;;;;;;;2.38;2.17;;;;;;;9.30;100.00;101752.25;1024313;28;20784;-80
2022/08/02 02:00:37;;;;;;;2.25;2.05;;;;;;;9.28;100.00;101737.50;1028994;28;20344;-81
2022/08/02 02:01:10;;;;;;;2.58;2.03;;;;;;;9.27;100.00;101751.81;1029525;28;20294;-81
2022/08/02 02:01:50;;;;;;;2.75;2.25;;;;;;;9.38;100.00;101747.88;1023499;28;20298;-81
2022/08/02 02:02:22;;;;;;;2.78;2.17;;;;;;;9.43;100.00;101751.63;1031336;28;20820;-80
2022/08/02 02:02:56;;;;;;;4.65;2.40;;;;;;;9.45;100.00;101746.94;1024780;28;20314;-81
2022/08/02 02:03:28;;;;;;;2.50;2.30;;;;;;;9.37;100.00;101752.38;1025529;28;20311;-81
2022/08/02 02:04:00;;;;;;;3.63;2.03;;;;;;;9.33;100.00;101740.47;1024114;28;20314;-80
2022/08/02 02:04:34;;;;;;;2.58;2.38;;;;;;;9.32;100.00;101752.09;1027905;28;20346;-81
2022/08/02 02:05:06;;;;;;;2.05;1.85;;;;;;;9.48;100.00;101754.53;1024426;28;20302;-81
2022/08/02 02:05:38;;;;;;;4.85;3.13;;;;;;;9.58;100.00;101755.06;1024294;28;20797;-81
2022/08/02 02:06:10;;;;;;;2.50;2.13;;;;;;;9.58;100.00;101757.72;1026356;28;20652;-81
2022/08/02 02:06:43;;;;;;;3.72;2.22;;;;;;;9.49;100.00;101750.88;1023358;29;20311;-81
2022/08/02 02:07:15;;;;;;;3.42;2.08;;;;;;;9.48;100.00;101748.38;1023515;29;20302;-81
2022/08/02 02:07:49;;;;;;;5.03;2.20;;;;;;;9.33;100.00;101755.59;1021154;28;20314;-81
2022/08/02 02:08:31;;;;;;;2.45;2.00;;;;;;;9.19;100.00;101757.22;1025236;28;20317;-81
2022/08/02 02:09:04;;;;;;;2.35;2.05;;;;;;;9.21;100.00;101752.56;1025398;28;20330;-81
2022/08/02 02:09:38;;;;;;;2.03;1.83;;;;;;;9.26;100.00;101755.47;1022951;28;20303;-81
2022/08/02 02:10:25;;;;;;;3.58;2.47;;;;;;;9.38;100.00;101748.69;1025522;28;20294;-81
2022/08/02 02:10:57;;;;;;;2.60;2.40;;;;;;;9.39;100.00;101744.19;1023361;29;20410;-81
2022/08/02 02:11:49;;;;;;;2.08;1.90;;;;;;;9.20;100.00;101753.56;1027528;28;20306;-81
2022/08/02 02:12:47;;;;;;;4.15;2.13;;;;;;;9.17;100.00;101743.31;1031026;28;20302;-81
2022/08/02 02:13:19;;;;;;;3.47;2.00;;;;;;;9.13;100.00;101750.00;1034142;28;20788;-79
2022/08/02 02:13:50;;;;;;;2.63;2.00;;;;;;;9.27;100.00;101735.84;1031391;28;20297;-81
2022/08/02 02:14:23;;;;;;;7.80;2.05;;;;;;;9.37;100.00;101731.09;1023356;28;20326;-81
2022/08/02 02:14:55;;;;;;;2.15;1.95;;;;;;;9.37;100.00;101739.06;1023538;28;20295;-80
2022/08/02 02:15:27;;;;;;;3.65;2.10;;;;;;;9.36;100.00;101734.75;1024171;28;20302;-81
2022/08/02 02:16:02;;;;;;;2.28;1.95;;;;;;;9.30;100.00;101730.16;1027938;28;20385;-81
2022/08/02 02:16:34;;;;;;;4.43;2.20;;;;;;;9.28;100.00;101740.16;1031232;28;20302;-81
2022/08/02 02:17:07;;;;;;;2.47;2.13;;;;;;;9.39;100.00;101739.72;1028372;28;20306;-80
2022/08/02 02:17:59;;;;;;;2.40;2.20;;;;;;;9.52;100.00;101739.84;1027095;28;20310;-81
2022/08/02 02:18:44;;;;;;;2.13;1.83;;;;;;;9.60;100.00;101737.09;1025233;28;20309;-81
2022/08/02 02:19:18;;;;;;;2.33;1.90;;;;;;;9.61;100.00;101732.59;1026737;28;20303;-80
2022/08/02 02:19:52;;;;;;;1.80;1.70;;;;;;;9.59;100.00;101735.44;1025671;28;20298;-81
2022/08/02 02:20:24;;;;;;;2.45;2.03;;;;;;;9.58;100.00;101725.78;1025862;28;20306;-80
2022/08/02 02:20:56;;;;;;;3.92;2.53;;;;;;;9.62;100.00;101725.44;1024184;28;20329;-81
2022/08/02 02:21:28;;;;;;;2.35;2.10;;;;;;;9.55;100.00;101728.84;1028741;28;20368;-80
2022/08/02 02:22:02;;;;;;;2.88;2.38;;;;;;;9.45;100.00;101723.00;1022274;29;20299;-81
2022/08/02 02:22:34;;;;;;;2.88;1.77;;;;;;;9.39;100.00;101725.59;1023561;28;20795;-81
2022/08/02 02:23:05;;;;;;;2.60;2.10;;;;;;;9.32;100.00;101733.50;1023472;28;20326;-80
2022/08/02 02:23:38;;;;;;;2.38;2.03;;;;;;;9.26;100.00;101721.75;1028781;28;20302;-81
2022/08/02 02:24:11;;;;;;;5.97;1.98;;;;;;;9.18;100.00;101729.00;1030957;28;20396;-81
2022/08/02 02:24:43;;;;;;;2.75;2.03;;;;;;;9.15;100.00;101722.22;1027172;28;20309;-81
2022/08/02 02:25:18;;;;;;;1.90;1.67;;;;;;;9.20;100.00;101724.31;1025960;28;20291;-81
2022/08/02 02:26:03;;;;;;;4.47;2.20;;;;;;;9.16;100.00;101728.38;1025606;28;20397;-79
2022/08/02 02:26:35;;;;;;;2.70;2.03;;;;;;;9.13;100.00;101734.06;1025972;28;20314;-81
2022/08/02 02:27:08;;;;;;;2.45;1.83;;;;;;;9.03;100.00;101734.31;1026293;28;20306;-81
2022/08/02 02:27:54;;;;;;;3.35;2.22;;;;;;;8.99;100.00;101731.19;1029459;28;20309;-80
2022/08/02 02:28:31;;;;;;;2.83;2.47;;;;;;;9.04;100.00;101729.81;1025901;28;20310;-81
2022/08/02 02:29:04;;;;;;;2.95;2.67;;;;;;;9.01;100.00;101724.88;1030513;28;20784;-80
2022/08/02 02:29:38;;;;;;;3.95;2.33;;;;;;;8.93;100.00;101729.28;1027567;28;20320;-81
2022/08/02 02:30:11;;;;;;;3.78;2.30;;;;;;;8.89;100.00;101728.00;1027374;28;20792;-80
2022/08/02 02:30:47;;;;;;;2.42;2.15;;;;;;;8.89;100.00;101728.00;1022933;28;20306;-81
2022/08/02 02:31:20;;;;;;;1.95;1.75;;;;;;;8.92;100.00;101719.66;1024605;28;20371;-81
2022/08/02 02:31:52;;;;;;;2.25;2.00;;;;;;;8.90;100.00;101723.53;1026622;28;20311;-81
2022/08/02 02:32:26;;;;;;;2.13;2.03;;;;;;;8.85;100.00;101721.41;1028682;28;20306;-81
2022/08/02 02:33:01;;;;;;;5.53;1.83;;;;;;;8.92;100.00;101719.66;1030672;28;20376;-80
2022/08/02 02:33:34;;;;;;;2.80;2.55;;;;;;;8.95;100.00;101721.13;1028596;28;20304;-82
2022/08/02 02:34:12;;;;;;;2.97;1.80;;;;;;;8.97;100.00;101722.59;1024990;28;20294;-82
2022/08/02 02:34:45;;;;;;;4.40;1.70;;;;;;;9.04;100.00;101721.84;1023195;29;20298;-82
2022/08/02 02:35:18;;;;;;;2.22;2.03;;;;;;;9.09;100.00;101722.16;1024882;28;20299;-82
2022/08/02 02:35:51;;;;;;;4.05;1.98;;;;;;;9.15;100.00;101724.06;1029693;28;20302;-82
2022/08/02 02:36:23;;;;;;;5.53;3.13;;;;;;;9.21;100.00;101720.66;1032318;28;20587;-82
2022/08/02 02:36:58;;;;;;;3.90;2.30;;;;;;;9.20;100.00;101721.66;1030997;28;20305;-82
2022/08/02 02:37:31;;;;;;;4.13;2.53;;;;;;;9.12;100.00;101732.41;1030359;28;20444;-83
2022/08/02 02:38:05;;;;;;;2.92;2.05;;;;;;;9.07;100.00;101726.81;1028375;28;20301;-82
2022/08/02 02:38:37;;;;;;;2.15;1.90;;;;;;;9.02;100.00;101721.22;1028652;28;20693;-82
2022/08/02 02:39:11;;;;;;;4.47;2.45;;;;;;;9.08;100.00;101728.47;1027323;28;20290;-82
2022/08/02 02:39:45;;;;;;;2.92;2.25;;;;;;;9.04;100.00;101724.50;1028647;28;20690;-82
2022/08/02 02:40:17;;;;;;;2.13;1.90;;;;;;;9.02;100.00;101726.53;1023236;29;20313;-82
2022/08/02 02:40:49;;;;;;;4.88;1.70;;;;;;;8.99;100.00;101728.53;1024087;28;20307;-81
2022/08/02 02:41:22;;;;;;;3.20;2.35;;;;;;;8.99;100.00;101727.72;1023314;28;20370;-81
2022/08/02 02:41:56;;;;;;;5.35;3.00;;;;;;;8.92;100.00;101727.63;1025102;28;20687;-82
2022/08/02 02:42:30;;;;;;;3.40;3.10;;;;;;;8.91;100.00;101720.69;1027043;28;20294;-81
2022/08/02 02:43:02;;;;;;;6.68;2.33;;;;;;;8.97;100.00;101727.91;1027334;28;20307;-82